PDT,Max TemperatureF,Mean TemperatureF,Min TemperatureF,Max Dew PointF,MeanDew PointF,Min DewpointF,Max Humidity, Mean Humidity, Min Humidity, Max Sea Level PressureIn, Mean Sea Level PressureIn, Min Sea Level PressureIn, Max VisibilityMiles, Mean VisibilityMiles, Min VisibilityMiles, Max Wind SpeedMPH, Mean Wind SpeedMPH, Max Gust SpeedMPH,PrecipitationIn, CloudCover, Events, WindDirDegrees
2013-10-1,60,47,33,38,34,29,92,66,40,30.11,29.99,29.91,10,10,10,18,7,22,0.00,1,,233
2013-10-2,56,45,34,40,36,31,92,72,51,30.14,30.10,30.04,10,10,10,16,8,18,0.00,5,,4
2013-10-3,64,53,42,38,33,26,82,54,25,30.38,30.25,30.11,10,10,10,24,13,32,0.00,0,,338
2013-10-4,65,51,37,35,32,28,76,52,28,30.51,30.44,30.40,10,10,10,12,5,15,0.00,0,,358
2013-10-5,66,52,37,35,33,31,82,57,31,30.42,30.34,30.24,10,10,10,12,5,15,0.00,0,,354
2013-10-6,70,54,38,35,34,31,82,53,23,30.23,30.08,29.91,10,10,10,10,5,13,0.00,0,,1
2013-10-7,69,55,40,38,34,29,82,53,24,29.90,29.87,29.83,10,10,10,28,11,36,T,1,,282
2013-10-8,60,49,37,37,33,29,82,58,33,30.01,29.90,29.85,10,10,10,25,10,30,T,2,,309
2013-10-9,62,50,37,39,33,29,92,61,29,30.10,30.01,29.87,10,10,10,14,6,18,0.00,0,,333
2013-10-10,65,54,42,40,33,28,82,54,26,29.99,29.88,29.83,10,10,10,15,5,18,0.00,3,,299
2013-10-11,61,52,43,30,28,27,53,40,27,30.11,30.06,30.00,10,10,10,10,4,15,0.00,3,,314
2013-10-12,57,50,43,41,35,30,68,58,47,30.14,30.07,30.01,10,10,10,15,6,17,0.00,7,,11
2013-10-13,63,54,44,33,29,26,62,44,25,30.30,30.23,30.16,10,10,10,14,7,21,0.00,1,,347
2013-10-14,64,52,40,29,26,23,57,40,23,30.41,30.37,30.30,10,10,10,16,6,18,0.00,0,,356
2013-10-15,62,46,30,33,28,25,75,51,27,30.43,30.32,30.17,10,10,10,8,4,,0.00,0,,15
2013-10-16,67,55,42,35,32,29,62,45,28,30.18,30.15,30.12,10,10,10,15,7,25,0.00,3,,346
2013-10-17,67,53,39,34,31,27,62,43,24,30.26,30.23,30.19,10,10,10,17,7,22,T,1,,355
2013-10-18,64,48,32,35,32,27,82,57,31,30.32,30.25,30.19,10,10,10,9,4,10,0.00,0,,35
2013-10-19,64,49,33,36,33,30,89,63,36,30.19,30.14,30.09,10,10,10,10,4,13,0.00,0,,23
2013-10-20,71,52,33,41,36,30,82,57,31,30.18,30.13,30.08,10,10,10,13,4,17,0.00,0,,317
2013-10-21,70,54,38,39,37,35,92,62,31,30.22,30.17,30.13,10,10,10,10,4,13,0.00,0,,27
2013-10-22,71,55,39,43,39,35,85,59,33,30.21,30.14,30.08,10,10,10,10,5,12,0.00,0,,354
2013-10-23,70,56,42,43,40,37,83,60,37,30.16,30.11,30.06,10,9,6,12,7,16,0.00,0,,345
2013-10-24,68,53,38,42,40,36,92,66,39,30.14,30.10,30.06,10,10,8,10,5,12,0.00,0,,359
2013-10-25,67,53,38,43,40,36,92,68,44,30.26,30.21,30.12,10,10,10,9,5,13,0.00,0,,6
2013-10-26,63,49,34,42,40,36,92,69,46,30.32,30.23,30.05,10,10,7,9,4,,0.00,0,,335
2013-10-27,52,44,36,47,40,32,96,75,54,30.02,29.86,29.80,10,8,5,22,11,28,0.14,6,Rain,24
2013-10-28,54,44,33,31,22,19,61,44,26,29.99,29.96,29.91,10,10,10,30,16,37,0.00,2,,31
2013-10-29,52,40,28,26,22,20,69,49,28,30.05,30.01,29.98,10,10,10,10,4,12,0.00,0,,324
2013-10-30,50,37,24,28,23,20,81,60,39,30.10,30.07,30.02,10,10,10,8,4,10,0.00,1,,25
2013-10-31,67,49,31,36,30,26,82,55,28,30.17,30.07,30.03,10,10,10,24,10,29,0.00,1,,326